createdAt,value
2019-01-15T00:00:11.587Z,66.70
2019-01-15T00:02:41.556Z,66.50
2019-01-15T00:05:09.990Z,65.90
2019-01-15T00:07:38.426Z,66.00
2019-01-15T00:10:09.053Z,66.30
2019-01-15T00:12:37.505Z,66.20
2019-01-15T00:15:11.041Z,66.10
2019-01-15T00:17:39.500Z,66.20
2019-01-15T00:20:13.741Z,67.00
2019-01-15T00:22:42.342Z,66.80
2019-01-15T00:25:11.205Z,67.00
2019-01-15T00:27:39.708Z,67.40
2019-01-15T00:30:14.357Z,67.20
2019-01-15T00:32:42.798Z,67.30
2019-01-15T00:35:11.292Z,67.50
2019-01-15T00:37:39.801Z,67.30
2019-01-15T00:40:11.507Z,66.80
2019-01-15T00:42:40.017Z,66.80
2019-01-15T00:45:10.258Z,66.70
2019-01-15T00:47:38.699Z,66.60
2019-01-15T00:50:09.950Z,66.70
2019-01-15T00:52:38.399Z,66.90
2019-01-15T00:55:08.395Z,66.80
2019-01-15T00:57:37.018Z,66.50
2019-01-15T01:00:17.471Z,66.60
2019-01-15T01:02:46.147Z,66.80
2019-01-15T01:05:15.016Z,66.10
2019-01-15T01:07:43.608Z,66.50
2019-01-15T01:10:13.962Z,66.40
2019-01-15T01:12:42.528Z,66.60
2019-01-15T01:15:13.696Z,66.50
2019-01-15T01:17:42.178Z,66.40
2019-01-15T01:20:13.231Z,66.80
2019-01-15T01:22:41.663Z,67.10
2019-01-15T01:25:12.803Z,67.50
2019-01-15T01:27:41.226Z,67.20
2019-01-15T01:30:12.738Z,67.80
2019-01-15T01:32:41.163Z,66.80
2019-01-15T01:35:09.743Z,66.30
2019-01-15T01:37:38.158Z,66.80
2019-01-15T01:40:09.914Z,66.50
2019-01-15T01:42:38.326Z,65.20
2019-01-15T01:45:10.061Z,65.20
2019-01-15T01:47:38.501Z,65.60
2019-01-15T01:50:09.387Z,66.20
2019-01-15T01:52:37.814Z,65.60
2019-01-15T01:55:08.924Z,65.50
2019-01-15T01:57:37.501Z,65.70
2019-01-15T02:00:09.087Z,65.00
2019-01-15T02:02:37.522Z,64.70
2019-01-15T02:05:06.773Z,64.40
2019-01-15T02:07:35.214Z,64.90
2019-01-15T02:10:04.476Z,64.90
2019-01-15T02:12:36.769Z,66.00
2019-01-15T02:15:03.455Z,66.30
2019-01-15T02:17:31.886Z,66.40
2019-01-15T02:20:00.484Z,66.50
2019-01-15T02:22:28.988Z,66.00
2019-01-15T02:24:57.401Z,66.50
2019-01-15T02:27:29.031Z,65.90
2019-01-15T02:29:57.447Z,66.50
2019-01-15T02:32:25.879Z,66.20
2019-01-15T02:34:54.287Z,65.90
2019-01-15T02:37:22.998Z,65.40
2019-01-15T02:39:51.402Z,65.10
2019-01-15T02:42:19.859Z,64.80
2019-01-15T02:44:48.276Z,64.80
2019-01-15T02:47:16.692Z,64.00
2019-01-15T02:49:45.125Z,63.80
2019-01-15T02:52:13.543Z,63.90
2019-01-15T03:11:42.596Z,63.40
2019-01-15T03:14:11.043Z,63.70
2019-01-15T03:16:39.474Z,64.10
2019-01-15T03:19:08.047Z,64.50
2019-01-15T03:21:36.453Z,63.90
2019-01-15T03:24:04.957Z,63.70
2019-01-15T03:26:33.386Z,63.80
2019-01-15T03:29:01.827Z,63.70
2019-01-15T03:31:30.240Z,63.90
2019-01-15T03:33:58.674Z,64.20
2019-01-15T03:36:27.092Z,64.10
2019-01-15T03:38:55.506Z,64.10
2019-01-15T03:41:23.955Z,63.90
2019-01-15T03:43:52.410Z,64.00
2019-01-15T03:46:20.852Z,64.20
2019-01-15T03:48:49.280Z,64.00
2019-01-15T03:51:17.715Z,64.00
2019-01-15T03:53:46.126Z,64.30
2019-01-15T03:56:14.566Z,63.70
2019-01-15T03:58:43.053Z,63.30
2019-01-15T04:01:11.500Z,62.90
2019-01-15T04:03:39.920Z,63.60
2019-01-15T04:06:08.364Z,63.40
2019-01-15T04:08:36.772Z,62.60
2019-01-15T04:11:05.279Z,62.60
2019-01-15T04:13:33.706Z,62.40
2019-01-15T04:16:02.266Z,62.40
2019-01-15T04:18:30.687Z,62.80
2019-01-15T04:20:59.116Z,62.70
2019-01-15T04:23:27.612Z,63.10
2019-01-15T04:25:56.081Z,63.40
2019-01-15T04:28:24.550Z,63.30
2019-01-15T04:30:52.983Z,63.40
2019-01-15T04:33:21.417Z,63.70
2019-01-15T04:35:50.107Z,63.80
2019-01-15T04:38:18.549Z,63.90
2019-01-15T04:40:47.027Z,64.10
2019-01-15T04:43:19.819Z,64.20
2019-01-15T04:45:45.616Z,64.70
2019-01-15T04:48:14.059Z,64.30
2019-01-15T04:50:42.483Z,64.10
2019-01-15T04:53:10.916Z,64.20
2019-01-15T04:55:39.346Z,64.30
2019-01-15T04:58:07.938Z,64.70
2019-01-15T05:00:36.416Z,64.40
2019-01-15T05:03:05.411Z,64.30
2019-01-15T05:05:33.987Z,64.00
2019-01-15T05:08:02.563Z,64.20
2019-01-15T05:10:31.008Z,64.70
2019-01-15T05:12:59.426Z,64.90
2019-01-15T05:15:27.943Z,65.40
2019-01-15T05:17:56.468Z,65.20
2019-01-15T05:20:25.098Z,65.40
2019-01-15T05:22:53.538Z,65.10
2019-01-15T05:25:22.513Z,65.40
2019-01-15T05:27:51.214Z,66.00
2019-01-15T05:30:22.330Z,66.20
2019-01-15T05:32:50.915Z,65.60
2019-01-15T05:35:19.558Z,65.40
2019-01-15T05:37:48.356Z,66.00
2019-01-15T05:40:17.031Z,65.80
2019-01-15T05:42:45.526Z,65.90
2019-01-15T05:45:23.382Z,66.50
2019-01-15T05:47:53.132Z,66.50
2019-01-15T05:50:23.236Z,66.30
2019-01-15T05:52:51.663Z,66.40
2019-01-15T05:55:20.117Z,66.70
2019-01-15T05:57:48.542Z,66.80
2019-01-15T06:00:17.622Z,66.80
2019-01-15T06:02:46.058Z,66.40
2019-01-15T06:05:14.939Z,66.30
2019-01-15T06:07:43.379Z,65.80
2019-01-15T06:10:14.911Z,66.10
2019-01-15T06:12:43.774Z,65.50
2019-01-15T06:15:16.991Z,64.90
2019-01-15T06:17:45.589Z,64.90
2019-01-15T06:20:16.654Z,65.30
2019-01-15T06:22:45.078Z,65.30
2019-01-15T06:25:14.043Z,65.10
2019-01-15T06:27:42.479Z,65.40
2019-01-15T06:30:17.032Z,64.90
2019-01-15T06:32:47.033Z,64.90
2019-01-15T06:35:15.617Z,65.10
2019-01-15T06:37:44.122Z,65.20
2019-01-15T06:40:17.306Z,65.40
2019-01-15T06:42:46.181Z,65.60
2019-01-15T06:45:17.728Z,65.50
2019-01-15T06:47:46.216Z,64.70
2019-01-15T06:50:15.379Z,65.00
2019-01-15T06:52:44.549Z,64.50
2019-01-15T07:15:41.363Z,65.70
2019-01-15T07:18:09.842Z,66.00
2019-01-15T07:20:38.273Z,65.70
2019-01-15T07:23:06.763Z,66.00
2019-01-15T07:25:35.272Z,65.20
2019-01-15T07:28:03.777Z,64.40
2019-01-15T07:30:41.226Z,64.90
2019-01-15T07:33:09.816Z,64.50
2019-01-15T07:35:38.395Z,63.90
2019-01-15T07:38:06.899Z,64.40
2019-01-15T07:40:35.316Z,64.00
2019-01-15T07:43:03.935Z,64.10
2019-01-15T07:45:32.419Z,64.20
2019-01-15T07:48:00.977Z,64.60
2019-01-15T07:50:30.394Z,64.50
2019-01-15T07:52:58.884Z,64.30
2019-01-15T07:55:27.325Z,64.60
2019-01-15T07:57:55.742Z,64.50
2019-01-15T08:00:25.424Z,64.40
2019-01-15T08:02:54.773Z,64.80
2019-01-15T08:05:28.157Z,64.90
2019-01-15T08:07:56.820Z,65.10
2019-01-15T08:10:25.263Z,65.90
2019-01-15T08:12:53.922Z,66.50
2019-01-15T08:15:24.794Z,67.60
2019-01-15T08:17:53.211Z,68.50
2019-01-15T08:20:21.702Z,68.70
2019-01-15T08:22:50.228Z,68.90
2019-01-15T08:25:18.643Z,69.10
2019-01-15T08:27:47.091Z,68.90
2019-01-15T08:30:30.423Z,68.40
2019-01-15T08:32:58.930Z,68.30
2019-01-15T08:35:27.421Z,68.00
2019-01-15T08:37:55.850Z,67.80
2019-01-15T08:40:24.506Z,67.10
2019-01-15T08:42:53.037Z,66.90
2019-01-15T08:45:21.694Z,66.90
2019-01-15T08:47:57.679Z,66.20
2019-01-15T08:50:28.721Z,65.40
2019-01-15T08:52:57.160Z,65.50
2019-01-15T08:55:25.575Z,65.50
2019-01-15T08:57:54.096Z,64.90
2019-01-15T09:00:22.654Z,64.40
2019-01-15T09:02:51.175Z,63.80
2019-01-15T09:05:19.670Z,63.20
2019-01-15T09:07:48.267Z,62.70
2019-01-15T09:10:17.554Z,62.90
2019-01-15T09:12:46.511Z,63.00
2019-01-15T09:15:17.195Z,63.10
2019-01-15T09:17:45.701Z,62.50
2019-01-15T09:20:16.382Z,62.40
2019-01-15T09:22:45.463Z,62.60
2019-01-15T09:25:14.061Z,62.20
2019-01-15T09:27:42.542Z,62.10
2019-01-15T09:30:14.430Z,61.50
2019-01-15T09:32:42.856Z,61.70
2019-01-15T09:35:11.376Z,61.20
2019-01-15T09:37:40.362Z,60.80
2019-01-15T09:40:12.115Z,60.30
2019-01-15T09:42:40.619Z,60.40
2019-01-15T09:45:14.751Z,60.20
2019-01-15T09:47:44.832Z,58.50
2019-01-15T09:50:13.442Z,59.00
2019-01-15T09:52:42.039Z,58.20
2019-01-15T09:55:10.696Z,58.80
2019-01-15T09:57:39.144Z,57.70
2019-01-15T10:00:10.768Z,58.40
2019-01-15T10:02:39.222Z,58.10
2019-01-15T10:05:07.773Z,57.60
2019-01-15T10:07:36.282Z,57.20
2019-01-15T10:10:07.834Z,56.60
2019-01-15T10:12:36.394Z,57.50
2019-01-15T10:15:07.971Z,57.30
2019-01-15T10:17:36.411Z,57.10
2019-01-15T10:20:08.290Z,57.80
2019-01-15T10:22:36.862Z,57.90
2019-01-15T10:25:08.399Z,57.50
2019-01-15T10:27:36.933Z,57.20
2019-01-15T10:30:15.012Z,58.10
2019-01-15T10:32:46.703Z,57.40
2019-01-15T10:35:18.232Z,56.80
2019-01-15T10:37:46.728Z,57.20
2019-01-15T10:40:15.148Z,58.40
2019-01-15T10:42:43.566Z,57.40
2019-01-15T10:45:12.534Z,58.00
2019-01-15T10:47:41.026Z,57.30
2019-01-15T10:50:12.472Z,56.80
2019-01-15T10:52:40.964Z,57.00
2019-01-15T10:55:09.842Z,57.50
2019-01-15T10:57:38.266Z,57.40
2019-01-15T11:00:12.727Z,57.20
2019-01-15T11:02:41.157Z,57.50
2019-01-15T11:05:11.839Z,58.00
2019-01-15T11:07:40.394Z,57.40
2019-01-15T11:10:11.910Z,58.70
2019-01-15T11:12:40.471Z,58.00
2019-01-15T11:15:09.158Z,59.00
2019-01-15T11:17:37.588Z,58.10
2019-01-15T11:20:09.192Z,58.50
2019-01-15T11:22:37.687Z,57.80
2019-01-15T11:25:08.082Z,58.40
2019-01-15T11:27:36.486Z,59.30
2019-01-15T11:30:08.334Z,57.60
2019-01-15T11:32:36.751Z,58.30
2019-01-15T11:35:08.538Z,57.30
2019-01-15T11:37:37.018Z,58.50
2019-01-15T11:40:08.528Z,57.30
2019-01-15T11:42:37.738Z,58.10
2019-01-15T11:45:09.253Z,57.60
2019-01-15T11:47:37.817Z,57.70
2019-01-15T11:50:14.995Z,57.80
2019-01-15T11:52:43.442Z,58.20
2019-01-15T11:55:12.061Z,57.30
2019-01-15T11:57:40.513Z,58.00
2019-01-15T12:00:15.286Z,58.30
2019-01-15T12:02:44.348Z,57.70
2019-01-15T12:05:31.090Z,58.30
2019-01-15T12:08:01.172Z,57.70
2019-01-15T12:10:47.336Z,57.40
2019-01-15T12:13:17.444Z,58.30
2019-01-15T12:15:50.280Z,57.30
2019-01-15T12:18:29.445Z,57.50
2019-01-15T12:20:59.499Z,57.90
2019-01-15T12:23:47.698Z,58.60
2019-01-15T12:26:17.774Z,58.20
2019-01-15T12:28:50.698Z,58.10
2019-01-15T12:31:20.750Z,57.90
2019-01-15T12:34:05.660Z,57.90
2019-01-15T12:36:35.746Z,57.90
2019-01-15T12:39:11.246Z,57.40
2019-01-15T12:41:56.327Z,57.90
2019-01-15T12:44:32.166Z,56.90
2019-01-15T12:47:18.471Z,57.20
2019-01-15T12:49:51.233Z,56.60
2019-01-15T12:52:27.027Z,57.60
2019-01-15T12:54:59.817Z,58.20
2019-01-15T12:57:29.938Z,58.20
2019-01-15T13:00:00.028Z,58.10
2019-01-15T13:02:30.163Z,57.80
2019-01-15T13:05:16.151Z,58.20
2019-01-15T13:07:49.225Z,59.10
2019-01-15T13:10:22.258Z,57.70
2019-01-15T13:13:08.553Z,58.00
2019-01-15T13:15:47.435Z,57.90
2019-01-15T13:18:32.526Z,58.20
2019-01-15T13:21:02.609Z,58.80
2019-01-15T13:23:50.855Z,58.20
2019-01-15T13:26:37.115Z,58.60
2019-01-15T13:29:13.237Z,58.70
2019-01-15T13:31:46.283Z,59.40
2019-01-15T13:34:28.462Z,59.50
2019-01-15T13:36:58.527Z,59.90
2019-01-15T13:39:34.251Z,60.00
2019-01-15T13:42:22.553Z,60.00
2019-01-15T13:44:52.658Z,59.90
2019-01-15T13:47:25.731Z,59.80
2019-01-15T13:49:58.611Z,60.10
2019-01-15T13:52:34.871Z,60.00
2019-01-15T13:55:06.198Z,60.20
2019-01-15T13:57:52.775Z,60.40
2019-01-15T14:00:31.403Z,60.30
2019-01-15T14:03:16.706Z,60.40
2019-01-15T14:05:53.669Z,60.50
2019-01-15T14:08:23.903Z,60.90
2019-01-15T14:11:11.830Z,60.80
2019-01-15T14:13:58.059Z,61.00
2019-01-15T14:16:43.398Z,61.20
2019-01-15T14:19:28.559Z,61.30
2019-01-15T14:22:01.571Z,61.40
2019-01-15T14:24:31.727Z,61.30
2019-01-15T14:27:01.799Z,61.40
2019-01-15T14:29:37.931Z,61.30
2019-01-15T14:32:13.682Z,61.40
2019-01-15T14:34:49.721Z,61.60
2019-01-15T14:37:36.096Z,61.50
2019-01-15T14:40:18.298Z,61.50
2019-01-15T14:42:57.211Z,61.60
2019-01-15T14:45:43.366Z,61.80
2019-01-15T14:48:29.575Z,61.60
2019-01-15T14:51:14.742Z,61.40
2019-01-15T14:54:01.286Z,61.20
2019-01-15T14:56:36.072Z,61.20
2019-01-15T14:59:09.077Z,61.50
2019-01-15T15:01:48.394Z,61.70
2019-01-15T15:04:18.473Z,61.60
2019-01-15T15:07:03.596Z,61.60
2019-01-15T15:09:33.650Z,61.60
2019-01-15T15:12:03.738Z,61.30
2019-01-15T15:14:36.378Z,61.50
2019-01-15T15:17:23.276Z,61.50
2019-01-15T15:19:53.339Z,61.50
2019-01-15T15:22:32.639Z,61.50
2019-01-15T15:25:02.743Z,61.60
2019-01-15T15:27:39.045Z,61.70
2019-01-15T15:30:30.736Z,61.50
2019-01-15T15:33:15.634Z,61.80
2019-01-15T15:35:45.758Z,62.00
2019-01-15T15:38:24.774Z,61.70
2019-01-15T15:40:57.630Z,62.00
2019-01-15T15:43:30.682Z,62.00
2019-01-15T15:46:19.390Z,61.80
2019-01-15T15:48:55.158Z,62.10
2019-01-15T15:51:25.219Z,62.10
2019-01-15T15:54:13.798Z,62.10
2019-01-15T15:56:46.806Z,61.90
2019-01-15T15:59:16.898Z,62.20
2019-01-15T16:01:52.686Z,62.30
2019-01-15T16:04:40.871Z,62.40
2019-01-15T16:07:29.114Z,62.00
2019-01-15T16:10:00.244Z,62.30
2019-01-15T16:12:30.276Z,62.10
2019-01-15T16:15:03.388Z,62.10
2019-01-15T16:17:45.375Z,62.20
2019-01-15T16:20:15.702Z,62.10
2019-01-15T16:22:45.779Z,62.10
2019-01-15T16:25:28.124Z,62.20
2019-01-15T16:28:14.611Z,62.20
2019-01-15T16:30:47.411Z,62.20
2019-01-15T16:33:33.519Z,61.80
2019-01-15T16:36:12.719Z,62.10
2019-01-15T16:38:42.873Z,62.30
2019-01-15T16:41:19.164Z,62.00
2019-01-15T16:44:05.791Z,62.10
2019-01-15T16:46:35.898Z,62.10
2019-01-15T16:49:06.035Z,61.70
2019-01-15T16:51:36.182Z,62.00
2019-01-15T16:54:06.798Z,61.70
2019-01-15T16:56:43.115Z,61.80
2019-01-15T16:59:16.380Z,61.40
2019-01-15T17:01:46.487Z,61.70
2019-01-15T17:04:25.128Z,61.40
2019-01-15T17:07:01.021Z,61.30
2019-01-15T17:09:40.351Z,61.50
2019-01-15T17:12:26.606Z,61.50
2019-01-15T17:15:13.240Z,61.60
2019-01-15T17:17:52.230Z,61.40
2019-01-15T17:20:22.291Z,61.40
2019-01-15T17:22:52.398Z,61.20
2019-01-15T17:25:22.469Z,61.20
2019-01-15T17:27:58.487Z,61.10
2019-01-15T17:30:37.864Z,60.60
2019-01-15T17:33:24.367Z,60.80
2019-01-15T17:35:54.428Z,60.80
2019-01-15T17:38:24.531Z,60.50
2019-01-15T17:41:06.463Z,60.60
2019-01-15T17:43:36.551Z,60.70
2019-01-15T17:46:06.974Z,60.70
2019-01-15T17:48:37.064Z,60.40
2019-01-15T17:51:07.220Z,60.30
2019-01-15T17:53:52.412Z,59.90
2019-01-15T17:56:22.562Z,60.10
2019-01-15T17:58:58.784Z,60.00
2019-01-15T18:01:47.427Z,60.10
2019-01-15T18:04:25.811Z,60.10
2019-01-15T18:07:10.804Z,60.10
2019-01-15T18:09:40.930Z,60.20
2019-01-15T18:12:22.830Z,60.10
2019-01-15T18:15:02.191Z,60.10
2019-01-15T18:17:32.363Z,60.00
2019-01-15T18:20:02.569Z,60.10
2019-01-15T18:22:32.631Z,60.20
2019-01-15T18:25:17.819Z,60.00
2019-01-15T18:27:53.680Z,60.10
2019-01-15T18:30:29.634Z,60.20
2019-01-15T18:33:02.787Z,60.30
2019-01-15T18:35:32.877Z,60.10
2019-01-15T18:38:21.698Z,60.00
2019-01-15T18:40:57.187Z,59.80
2019-01-15T18:43:29.945Z,58.70
2019-01-15T18:46:02.876Z,59.10
2019-01-15T18:48:38.876Z,59.20
2019-01-15T18:51:25.382Z,59.40
2019-01-15T18:53:58.443Z,60.00
2019-01-15T18:56:31.351Z,59.70
2019-01-15T18:59:04.510Z,59.30
2019-01-15T19:01:37.450Z,59.70
2019-01-15T19:04:07.513Z,59.40
2019-01-15T19:06:37.590Z,59.70
2019-01-15T19:09:15.211Z,59.50
2019-01-15T19:11:45.371Z,59.50
2019-01-15T19:14:18.423Z,59.50
2019-01-15T19:16:54.319Z,58.40
2019-01-15T19:19:24.420Z,59.20
2019-01-15T19:22:06.636Z,59.00
2019-01-15T19:24:48.747Z,59.20
2019-01-15T19:27:24.628Z,58.90
2019-01-15T19:30:10.983Z,59.50
2019-01-15T19:32:47.104Z,59.00
2019-01-15T19:35:33.694Z,58.80
2019-01-15T19:38:09.976Z,59.50
2019-01-15T19:40:48.891Z,59.20
2019-01-15T19:43:27.836Z,59.40
2019-01-15T19:46:14.538Z,60.00
2019-01-15T19:48:50.740Z,60.10
2019-01-15T19:51:40.444Z,59.30
2019-01-15T19:54:29.232Z,59.20
2019-01-15T19:56:59.324Z,59.20
2019-01-15T19:59:38.274Z,59.60
2019-01-15T20:02:08.383Z,59.80
2019-01-15T20:04:38.559Z,59.70
2019-01-15T20:07:11.514Z,59.50
2019-01-15T20:09:44.334Z,59.90
2019-01-15T20:12:17.107Z,59.80
2019-01-15T20:14:47.246Z,59.80
2019-01-15T20:17:33.564Z,59.70
2019-01-15T20:20:06.379Z,59.90
2019-01-15T20:22:52.775Z,60.00
2019-01-15T20:25:37.982Z,60.00
2019-01-15T20:28:08.116Z,60.10
2019-01-15T20:30:38.238Z,60.00
2019-01-15T20:33:14.040Z,60.10
2019-01-15T20:35:55.907Z,60.10
2019-01-15T20:38:30.304Z,60.00
2019-01-15T20:41:12.395Z,60.00
2019-01-15T20:43:58.736Z,60.00
2019-01-15T20:46:35.118Z,60.00
2019-01-15T20:49:05.187Z,59.60
2019-01-15T20:51:51.234Z,60.10
2019-01-15T20:54:30.342Z,60.10
2019-01-15T20:57:09.498Z,60.00
2019-01-15T20:59:39.555Z,60.00
2019-01-15T21:02:26.302Z,60.00
2019-01-15T21:04:59.342Z,60.00
2019-01-15T21:07:29.499Z,59.90
2019-01-15T21:10:11.295Z,59.90
2019-01-15T21:12:50.112Z,59.80
2019-01-15T21:15:29.410Z,59.30
2019-01-15T21:18:16.003Z,59.80
2019-01-15T21:20:46.055Z,59.70
2019-01-15T21:23:28.189Z,59.80
2019-01-15T21:26:07.106Z,60.00
2019-01-15T21:28:43.227Z,60.10
2019-01-15T21:31:28.359Z,60.00
2019-01-15T21:34:01.130Z,60.00
2019-01-15T21:36:31.262Z,59.10
2019-01-15T21:39:01.355Z,59.70
2019-01-15T21:41:37.539Z,60.20
2019-01-15T21:44:07.649Z,59.80
2019-01-15T21:46:43.300Z,59.90
2019-01-15T21:52:05.663Z,59.80
2019-01-15T21:54:35.754Z,60.30
2019-01-15T21:57:08.843Z,60.10
2019-01-15T21:59:38.914Z,60.10
2019-01-15T22:02:23.943Z,59.40
2019-01-15T22:05:02.779Z,60.10
2019-01-15T22:07:35.439Z,60.00
2019-01-15T22:10:14.806Z,59.40
2019-01-15T22:12:47.987Z,60.00
2019-01-15T22:15:36.147Z,59.60
2019-01-15T22:20:44.946Z,59.60
2019-01-15T22:23:17.966Z,59.70
2019-01-15T22:26:04.566Z,59.40
2019-01-15T22:28:50.926Z,59.40
2019-01-15T22:31:23.994Z,58.90
2019-01-15T22:34:06.172Z,59.20
2019-01-15T22:36:38.960Z,60.00
2019-01-15T22:39:10.558Z,59.20
2019-01-15T22:41:43.743Z,60.20
2019-01-15T22:44:13.791Z,59.90
2019-01-15T22:46:46.846Z,59.30
2019-01-15T22:49:22.689Z,59.10
2019-01-15T22:51:52.787Z,59.30
2019-01-15T22:54:29.053Z,59.30
2019-01-15T22:57:04.986Z,59.50
2019-01-15T22:59:40.818Z,59.20
2019-01-15T23:02:10.979Z,58.90
2019-01-15T23:04:41.044Z,59.10
2019-01-15T23:07:13.967Z,58.80
2019-01-15T23:09:59.381Z,60.10
2019-01-15T23:12:46.395Z,59.60
2019-01-15T23:15:19.359Z,59.60
2019-01-15T23:18:05.861Z,59.40
2019-01-15T23:20:44.788Z,59.50
2019-01-15T23:23:14.861Z,59.40
2019-01-15T23:25:50.959Z,60.20
2019-01-15T23:28:21.082Z,60.00
2019-01-15T23:30:59.802Z,59.80
2019-01-15T23:33:46.088Z,60.10
2019-01-15T23:36:16.206Z,60.10
2019-01-15T23:38:49.313Z,60.70
2019-01-15T23:41:22.470Z,60.10
2019-01-15T23:44:09.049Z,59.30
2019-01-15T23:46:51.174Z,58.80
2019-01-15T23:49:30.491Z,60.10
2019-01-15T23:52:12.274Z,59.20
2019-01-15T23:54:45.182Z,58.60
2019-01-15T23:57:24.003Z,59.50
